Maersk Columbus — WMCU — position and weather

sailwx.info

Track history (hours):
 
Tides and Currents Weather Stations Pressure Air Temp Water Temp Dewpoint Dewpoint Depression Visibility Wind Speed Wind Dir Waves Ship Positions

Maersk Columbus

Owner: MAERSK LINE, LIMITED, NORFOLK, VA. More information available from US FCC via Universal Licensing System and Coast Guard Vessel Documentation Center.

Last reported at 2018-Jun-25 06:00 UTC. Time now 2018-Jun-25 07:42 UTC.
Position N 24°42' W 084°30'.

Length 299 m; draft 11.2 m.

Type: Ship (hazmat cat A). MMSI: 338525000.

Wind from 090 at 15 knots

Barometer 1017.1 mb
Air temperature 25.0 ° C
Visibility: greater than 10.8 NM
Dewpoint 23.5 ° C
Water temperature 30.0 ° C

Date/timePositionNaut miles runAvg speedWind from/ knotsBaromVisibWave heightAir tempDewpointWater temp
2018-Jun-25 06:00N 24°42' W 084°30'16013.3 090 / 151017.110.8 25.023.530.0
2018-Jun-24 18:00N 24°18' W 081°36'10612.2 110 / 91017.110.8 30.024.329.0
2018-Jun-24 09:19N 25°20' W 080°02'412.0
2018-Jun-24 08:59N 25°24' W 080°02'612.1
2018-Jun-24 08:30N 25°30' W 080°01'612.3
2018-Jun-24 08:00N 25°36' W 080°01'612.3
2018-Jun-24 07:30N 25°43' W 080°01'612.0
2018-Jun-24 07:00N 25°49' W 080°01'611.7
2018-Jun-24 06:30N 25°54' W 080°00'611.6
2018-Jun-24 06:00N 26°00' W 079°60'611.7
2018-Jun-24 05:30N 26°06' W 079°60'611.8
2018-Jun-24 05:00N 26°12' W 079°59'612.0
2018-Jun-24 04:30N 26°18' W 079°58'612.3
2018-Jun-24 04:00N 26°24' W 079°58'612.2
2018-Jun-24 03:30N 26°30' W 079°58'612.6
2018-Jun-24 03:00N 26°36' W 079°58'1012.4
2018-Jun-24 02:10N 26°47' W 079°58'212.2
2018-Jun-24 01:59N 26°49' W 079°58'612.4
2018-Jun-24 01:30N 26°55' W 079°58'612.7
2018-Jun-24 01:00N 27°01' W 079°59'28213.5
2018-Jun-23 04:10N 31°42' W 080°32'315.5
2018-Jun-23 03:57N 31°45' W 080°33'815.4
2018-Jun-23 03:27N 31°52' W 080°36'715.4
2018-Jun-23 02:59N 31°57' W 080°42'612.8
2018-Jun-23 02:29N 32°01' W 080°48'613.2
2018-Jun-23 02:00N 32°03' W 080°56'611.4
2018-Jun-23 01:30N 32°05' W 081°02'3 6.4
2018-Jun-23 01:01N 32°05' W 081°05'3 5.2
2018-Jun-23 00:29N 32°07' W 081°08'1 2.7
2018-Jun-23 00:00N 32°08' W 081°08'0 0.8
2018-Jun-22 23:30N 32°08' W 081°08'0 0.0
2018-Jun-22 23:00N 32°08' W 081°08'0 0.0
2018-Jun-22 22:27N 32°08' W 081°08'0 0.0
2018-Jun-22 21:57N 32°08' W 081°08'0 0.0
2018-Jun-22 21:27N 32°08' W 081°08'0 0.0
2018-Jun-22 20:57N 32°08' W 081°08'0 0.0
2018-Jun-22 20:27N 32°08' W 081°08'0 0.0
2018-Jun-22 19:57N 32°08' W 081°08'0 0.0
2018-Jun-22 19:21N 32°08' W 081°08'0 0.0
2018-Jun-22 18:51N 32°08' W 081°08'0 0.0
2018-Jun-22 18:27N 32°08' W 081°08'0 0.0
2018-Jun-22 17:57N 32°08' W 081°08'0 0.0
2018-Jun-22 17:27N 32°08' W 081°08'0 0.0
2018-Jun-22 16:57N 32°08' W 081°08'0 0.0
2018-Jun-22 16:27N 32°08' W 081°08'0 0.0
2018-Jun-22 15:51N 32°08' W 081°08'0 0.0
2018-Jun-22 15:27N 32°08' W 081°08'0 0.0
2018-Jun-22 14:57N 32°08' W 081°08'0 0.0
2018-Jun-22 14:27N 32°08' W 081°08'0 0.0
2018-Jun-22 13:57N 32°08' W 081°08'0 0.0
2018-Jun-22 13:27N 32°08' W 081°08'0 0.0
2018-Jun-22 12:57N 32°08' W 081°08'0 0.0
2018-Jun-22 12:27N 32°08' W 081°08'0 0.0
2018-Jun-22 11:57N 32°08' W 081°08'0 0.0
2018-Jun-22 11:27N 32°08' W 081°08'0 0.0
2018-Jun-22 10:57N 32°08' W 081°08'0 0.0
2018-Jun-22 10:27N 32°08' W 081°08'0 0.0
2018-Jun-22 09:57N 32°08' W 081°08'0 0.0
2018-Jun-22 09:27N 32°08' W 081°08'0 0.0
2018-Jun-22 08:57N 32°08' W 081°08'1 1.8
2018-Jun-22 08:30N 32°07' W 081°08'3 6.6
2018-Jun-22 08:00N 32°05' W 081°05'3 5.3
2018-Jun-22 07:29N 32°05' W 081°01'4 9.4
2018-Jun-22 07:00N 32°03' W 080°57'611.8
2018-Jun-22 06:30N 32°02' W 080°50'815.1
2018-Jun-22 05:59N 31°58' W 080°42'5 8.5
2018-Jun-22 05:27N 31°55' W 080°38'612.9
2018-Jun-22 05:00N 31°55' W 080°31'713.1
2018-Jun-22 04:29N 31°56' W 080°23'613.1
2018-Jun-22 04:00N 31°59' W 080°17'713.2
2018-Jun-22 03:28N 32°04' W 080°10'613.3
2018-Jun-22 03:00N 32°08' W 080°05'613.2
2018-Jun-22 02:30N 32°12' W 079°59'713.1
2018-Jun-22 02:00N 32°16' W 079°52'613.1
2018-Jun-22 01:30N 32°20' W 079°47'713.1
2018-Jun-22 01:00N 32°24' W 079°41'712.5
2018-Jun-22 00:26N 32°30' W 079°37'613.4
2018-Jun-22 00:00N 32°36' W 079°37'611.9
2018-Jun-21 23:29N 32°40' W 079°42'815.8
2018-Jun-21 23:00N 32°44' W 079°50'611.9
2018-Jun-21 22:30N 32°48' W 079°55'4 7.7
2018-Jun-21 22:01N 32°51' W 079°57'3 5.7
2018-Jun-21 21:29N 32°54' W 079°57'1 0.1
2018-Jun-21 10:32N 32°53' W 079°58'1 7.2
2018-Jun-21 10:20N 32°52' W 079°58'2 6.8
2018-Jun-21 10:00N 32°50' W 079°56'4 7.7
2018-Jun-21 09:30N 32°47' W 079°54'712.5
2018-Jun-21 08:59N 32°43' W 079°48'18912.6
2018-Jun-20 18:00N 34°06' W 076°24'1610.9 270 / 101011.710.8 28.023.727.0
2018-Jun-20 16:33N 34°19' W 076°14'313.4
2018-Jun-20 16:19N 34°21' W 076°11'1313.4
2018-Jun-20 15:22N 34°31' W 076°00'1813.6
2018-Jun-20 14:03N 34°43' W 075°45'214.2
2018-Jun-20 13:54N 34°45' W 075°43'514.1
2018-Jun-20 13:30N 34°48' W 075°38'714.1
2018-Jun-20 13:00N 34°53' W 075°32'1014.0
2018-Jun-20 12:18N 35°00' W 075°23'7912.6
2018-Jun-20 06:00N 36°12' W 074°42'19813.6 090 / 81010.010.8 24.523.823.0
2018-Jun-19 15:26N 39°26' W 073°56'510.7
2018-Jun-19 14:59N 39°31' W 073°55'610.6
2018-Jun-19 14:26N 39°37' W 073°53'510.6
2018-Jun-19 13:58N 39°42' W 073°52'510.7
2018-Jun-19 13:30N 39°46' W 073°51'610.8
2018-Jun-19 12:55N 39°53' W 073°51'510.9
2018-Jun-19 12:27N 39°58' W 073°50'36 9.5
2018-Jun-19 08:43N 40°32' W 074°01'417.3
2018-Jun-19 08:30N 40°36' W 074°03'4 8.6
2018-Jun-19 08:01N 40°39' W 074°07'2 3.4
2018-Jun-19 07:30N 40°40' W 074°09'0 0.3
2018-Jun-19 07:00N 40°40' W 074°09'0 0.0
2018-Jun-19 06:29N 40°40' W 074°09'0 0.0
2018-Jun-19 05:59N 40°40' W 074°09'0 0.0
2018-Jun-19 05:29N 40°40' W 074°09'0 0.0
2018-Jun-19 04:59N 40°40' W 074°09'0 0.0
2018-Jun-19 04:29N 40°40' W 074°09'0 0.0
2018-Jun-19 03:59N 40°40' W 074°09'0 0.0
2018-Jun-19 03:29N 40°40' W 074°09'0 0.0
2018-Jun-19 02:59N 40°40' W 074°09'0 0.0
2018-Jun-19 02:29N 40°40' W 074°09'0 0.0
2018-Jun-19 01:59N 40°40' W 074°09'0 0.0
2018-Jun-19 01:29N 40°40' W 074°09'0 0.0
2018-Jun-19 00:59N 40°40' W 074°09'0 0.0
2018-Jun-19 00:29N 40°40' W 074°09'0 0.0
2018-Jun-18 23:59N 40°40' W 074°09'0 0.0
2018-Jun-18 23:29N 40°40' W 074°09'0 0.0
2018-Jun-18 22:50N 40°40' W 074°09'0 0.0
2018-Jun-18 22:26N 40°40' W 074°09'0 0.0
2018-Jun-18 21:59N 40°40' W 074°09'0 0.0
2018-Jun-18 21:29N 40°40' W 074°09'0 0.0
2018-Jun-18 20:59N 40°40' W 074°09'0 0.0
2018-Jun-18 20:29N 40°40' W 074°09'0 0.0
2018-Jun-18 19:59N 40°40' W 074°09'0 0.0
2018-Jun-18 19:23N 40°40' W 074°09'0 0.0
2018-Jun-18 18:59N 40°40' W 074°09'0 0.0
2018-Jun-18 18:29N 40°40' W 074°09'0 0.0
2018-Jun-18 17:59N 40°40' W 074°09'0 0.0
2018-Jun-18 17:26N 40°40' W 074°09'0 0.0
2018-Jun-18 16:59N 40°40' W 074°09'0 0.0
2018-Jun-18 16:29N 40°40' W 074°09'0 0.0
2018-Jun-18 15:59N 40°40' W 074°09'0 0.0
2018-Jun-18 15:29N 40°40' W 074°09'0 0.0
2018-Jun-18 14:59N 40°40' W 074°09'0 0.0
2018-Jun-18 14:26N 40°40' W 074°09'0 0.0
2018-Jun-18 13:59N 40°40' W 074°09'0 0.0
2018-Jun-18 13:29N 40°40' W 074°09'0 0.0
2018-Jun-18 12:59N 40°40' W 074°09'0 0.0
2018-Jun-18 12:29N 40°40' W 074°09'0 0.0
2018-Jun-18 11:59N 40°40' W 074°09'0 0.0
2018-Jun-18 11:20N 40°40' W 074°09'0 0.0
2018-Jun-18 10:59N 40°40' W 074°09'0 0.0
2018-Jun-18 10:29N 40°40' W 074°09'0 0.0
2018-Jun-18 09:56N 40°40' W 074°09'0 0.0
2018-Jun-18 09:29N 40°40' W 074°09'0 0.0
2018-Jun-18 08:59N 40°40' W 074°09'0 0.0
2018-Jun-18 08:29N 40°40' W 074°09'0 0.0
2018-Jun-18 07:57N 40°40' W 074°09'0 0.1
2018-Jun-18 07:30N 40°40' W 074°09'1 2.6
2018-Jun-18 07:00N 40°39' W 074°08'3 6.6
2018-Jun-18 06:30N 40°39' W 074°04'612.3
2018-Jun-18 06:01N 40°33' W 074°02'815.4
2018-Jun-18 05:30N 40°29' W 073°53'5 9.9
2018-Jun-18 05:01N 40°26' W 073°47'2 3.8
2018-Jun-18 04:30N 40°26' W 073°45'4 7.3
2018-Jun-18 04:00N 40°27' W 073°40'6 9.0
2018-Jun-18 03:21N 40°28' W 073°33'3 9.2
2018-Jun-18 03:00N 40°28' W 073°28'5 9.3
2018-Jun-18 02:30N 40°29' W 073°22'815.4
2018-Jun-18 02:00N 40°30' W 073°12'917.4
2018-Jun-18 01:30N 40°30' W 073°01'917.8
2018-Jun-18 01:00N 40°31' W 072°49'1018.2
2018-Jun-18 00:29N 40°31' W 072°37'918.3
2018-Jun-18 00:00N 40°31' W 072°25'918.4
2018-Jun-17 23:30N 40°31' W 072°13'918.5
2018-Jun-17 23:01N 40°31' W 072°01'918.8
2018-Jun-17 22:30N 40°31' W 071°49'9621.3
2018-Jun-17 18:00N 40°36' W 069°42'45719.0 290 / 71019.027.0 17.313.213.6
2018-Jun-16 18:00N 40°18' W 059°42'53017.7 290 / 321012.710.8 21.0 7.519.0
2018-Jun-15 12:00N 41°12' W 048°06'11719.6 210 / 301012.727.0 18.714.412.5
2018-Jun-15 06:00N 41°12' W 045°30'   180 / 161016.710.8 19.015.619.0
Track history (hours):
 
Tides and Currents Weather Stations Pressure Air Temp Water Temp Dewpoint Dewpoint Depression Visibility Wind Speed Wind Dir Waves Ship Positions

Maersk Columbus

Owner: MAERSK LINE, LIMITED, NORFOLK, VA. More information available from US FCC via Universal Licensing System and Coast Guard Vessel Documentation Center.

Last reported at 2018-Jun-25 06:00 UTC. Time now 2018-Jun-25 07:42 UTC.
Position N 24°42' W 084°30'.

Length 299 m; draft 11.2 m.

Type: Ship (hazmat cat A). MMSI: 338525000.

Wind from 090 at 15 knots

Barometer 1017.1 mb
Air temperature 25.0 ° C
Visibility: greater than 10.8 NM
Dewpoint 23.5 ° C
Water temperature 30.0 ° C

Date/timePositionNaut miles runAvg speedWind from/ knotsBaromVisibWave heightAir tempDewpointWater temp
2018-Jun-25 06:00N 24°42' W 084°30'16013.3 090 / 151017.110.8 25.023.530.0
2018-Jun-24 18:00N 24°18' W 081°36'10612.2 110 / 91017.110.8 30.024.329.0
2018-Jun-24 09:19N 25°20' W 080°02'412.0
2018-Jun-24 08:59N 25°24' W 080°02'612.1
2018-Jun-24 08:30N 25°30' W 080°01'612.3
2018-Jun-24 08:00N 25°36' W 080°01'612.3
2018-Jun-24 07:30N 25°43' W 080°01'612.0
2018-Jun-24 07:00N 25°49' W 080°01'611.7
2018-Jun-24 06:30N 25°54' W 080°00'611.6
2018-Jun-24 06:00N 26°00' W 079°60'611.7
2018-Jun-24 05:30N 26°06' W 079°60'611.8
2018-Jun-24 05:00N 26°12' W 079°59'612.0
2018-Jun-24 04:30N 26°18' W 079°58'612.3
2018-Jun-24 04:00N 26°24' W 079°58'612.2
2018-Jun-24 03:30N 26°30' W 079°58'612.6
2018-Jun-24 03:00N 26°36' W 079°58'1012.4
2018-Jun-24 02:10N 26°47' W 079°58'212.2
2018-Jun-24 01:59N 26°49' W 079°58'612.4
2018-Jun-24 01:30N 26°55' W 079°58'612.7
2018-Jun-24 01:00N 27°01' W 079°59'28213.5
2018-Jun-23 04:10N 31°42' W 080°32'315.5
2018-Jun-23 03:57N 31°45' W 080°33'815.4
2018-Jun-23 03:27N 31°52' W 080°36'715.4
2018-Jun-23 02:59N 31°57' W 080°42'612.8
2018-Jun-23 02:29N 32°01' W 080°48'613.2
2018-Jun-23 02:00N 32°03' W 080°56'611.4
2018-Jun-23 01:30N 32°05' W 081°02'3 6.4
2018-Jun-23 01:01N 32°05' W 081°05'3 5.2
2018-Jun-23 00:29N 32°07' W 081°08'1 2.7
2018-Jun-23 00:00N 32°08' W 081°08'0 0.8
2018-Jun-22 23:30N 32°08' W 081°08'0 0.0
2018-Jun-22 23:00N 32°08' W 081°08'0 0.0
2018-Jun-22 22:27N 32°08' W 081°08'0 0.0
2018-Jun-22 21:57N 32°08' W 081°08'0 0.0
2018-Jun-22 21:27N 32°08' W 081°08'0 0.0
2018-Jun-22 20:57N 32°08' W 081°08'0 0.0
2018-Jun-22 20:27N 32°08' W 081°08'0 0.0
2018-Jun-22 19:57N 32°08' W 081°08'0 0.0
2018-Jun-22 19:21N 32°08' W 081°08'0 0.0
2018-Jun-22 18:51N 32°08' W 081°08'0 0.0
2018-Jun-22 18:27N 32°08' W 081°08'0 0.0
2018-Jun-22 17:57N 32°08' W 081°08'0 0.0
2018-Jun-22 17:27N 32°08' W 081°08'0 0.0
2018-Jun-22 16:57N 32°08' W 081°08'0 0.0
2018-Jun-22 16:27N 32°08' W 081°08'0 0.0
2018-Jun-22 15:51N 32°08' W 081°08'0 0.0
2018-Jun-22 15:27N 32°08' W 081°08'0 0.0
2018-Jun-22 14:57N 32°08' W 081°08'0 0.0
2018-Jun-22 14:27N 32°08' W 081°08'0 0.0
2018-Jun-22 13:57N 32°08' W 081°08'0 0.0
2018-Jun-22 13:27N 32°08' W 081°08'0 0.0
2018-Jun-22 12:57N 32°08' W 081°08'0 0.0
2018-Jun-22 12:27N 32°08' W 081°08'0 0.0
2018-Jun-22 11:57N 32°08' W 081°08'0 0.0
2018-Jun-22 11:27N 32°08' W 081°08'0 0.0
2018-Jun-22 10:57N 32°08' W 081°08'0 0.0
2018-Jun-22 10:27N 32°08' W 081°08'0 0.0
2018-Jun-22 09:57N 32°08' W 081°08'0 0.0
2018-Jun-22 09:27N 32°08' W 081°08'0 0.0
2018-Jun-22 08:57N 32°08' W 081°08'1 1.8
2018-Jun-22 08:30N 32°07' W 081°08'3 6.6
2018-Jun-22 08:00N 32°05' W 081°05'3 5.3
2018-Jun-22 07:29N 32°05' W 081°01'4 9.4
2018-Jun-22 07:00N 32°03' W 080°57'611.8
2018-Jun-22 06:30N 32°02' W 080°50'815.1
2018-Jun-22 05:59N 31°58' W 080°42'5 8.5
2018-Jun-22 05:27N 31°55' W 080°38'612.9
2018-Jun-22 05:00N 31°55' W 080°31'713.1
2018-Jun-22 04:29N 31°56' W 080°23'613.1
2018-Jun-22 04:00N 31°59' W 080°17'713.2
2018-Jun-22 03:28N 32°04' W 080°10'613.3
2018-Jun-22 03:00N 32°08' W 080°05'613.2
2018-Jun-22 02:30N 32°12' W 079°59'713.1
2018-Jun-22 02:00N 32°16' W 079°52'613.1
2018-Jun-22 01:30N 32°20' W 079°47'713.1
2018-Jun-22 01:00N 32°24' W 079°41'712.5
2018-Jun-22 00:26N 32°30' W 079°37'613.4
2018-Jun-22 00:00N 32°36' W 079°37'611.9
2018-Jun-21 23:29N 32°40' W 079°42'815.8
2018-Jun-21 23:00N 32°44' W 079°50'611.9
2018-Jun-21 22:30N 32°48' W 079°55'4 7.7
2018-Jun-21 22:01N 32°51' W 079°57'3 5.7
2018-Jun-21 21:29N 32°54' W 079°57'1 0.1
2018-Jun-21 10:32N 32°53' W 079°58'1 7.2
2018-Jun-21 10:20N 32°52' W 079°58'2 6.8
2018-Jun-21 10:00N 32°50' W 079°56'4 7.7
2018-Jun-21 09:30N 32°47' W 079°54'712.5
2018-Jun-21 08:59N 32°43' W 079°48'18912.6
2018-Jun-20 18:00N 34°06' W 076°24'1610.9 270 / 101011.710.8 28.023.727.0
2018-Jun-20 16:33N 34°19' W 076°14'313.4
2018-Jun-20 16:19N 34°21' W 076°11'1313.4
2018-Jun-20 15:22N 34°31' W 076°00'1813.6
2018-Jun-20 14:03N 34°43' W 075°45'214.2
2018-Jun-20 13:54N 34°45' W 075°43'514.1
2018-Jun-20 13:30N 34°48' W 075°38'714.1
2018-Jun-20 13:00N 34°53' W 075°32'1014.0
2018-Jun-20 12:18N 35°00' W 075°23'7912.6
2018-Jun-20 06:00N 36°12' W 074°42'19813.6 090 / 81010.010.8 24.523.823.0
2018-Jun-19 15:26N 39°26' W 073°56'510.7
2018-Jun-19 14:59N 39°31' W 073°55'610.6
2018-Jun-19 14:26N 39°37' W 073°53'510.6
2018-Jun-19 13:58N 39°42' W 073°52'510.7
2018-Jun-19 13:30N 39°46' W 073°51'610.8
2018-Jun-19 12:55N 39°53' W 073°51'510.9
2018-Jun-19 12:27N 39°58' W 073°50'36 9.5
2018-Jun-19 08:43N 40°32' W 074°01'417.3
2018-Jun-19 08:30N 40°36' W 074°03'4 8.6
2018-Jun-19 08:01N 40°39' W 074°07'2 3.4
2018-Jun-19 07:30N 40°40' W 074°09'0 0.3
2018-Jun-19 07:00N 40°40' W 074°09'0 0.0
2018-Jun-19 06:29N 40°40' W 074°09'0 0.0
2018-Jun-19 05:59N 40°40' W 074°09'0 0.0
2018-Jun-19 05:29N 40°40' W 074°09'0 0.0
2018-Jun-19 04:59N 40°40' W 074°09'0 0.0
2018-Jun-19 04:29N 40°40' W 074°09'0 0.0
2018-Jun-19 03:59N 40°40' W 074°09'0 0.0
2018-Jun-19 03:29N 40°40' W 074°09'0 0.0
2018-Jun-19 02:59N 40°40' W 074°09'0 0.0
2018-Jun-19 02:29N 40°40' W 074°09'0 0.0
2018-Jun-19 01:59N 40°40' W 074°09'0 0.0
2018-Jun-19 01:29N 40°40' W 074°09'0 0.0
2018-Jun-19 00:59N 40°40' W 074°09'0 0.0
2018-Jun-19 00:29N 40°40' W 074°09'0 0.0
2018-Jun-18 23:59N 40°40' W 074°09'0 0.0
2018-Jun-18 23:29N 40°40' W 074°09'0 0.0
2018-Jun-18 22:50N 40°40' W 074°09'0 0.0
2018-Jun-18 22:26N 40°40' W 074°09'0 0.0
2018-Jun-18 21:59N 40°40' W 074°09'0 0.0
2018-Jun-18 21:29N 40°40' W 074°09'0 0.0
2018-Jun-18 20:59N 40°40' W 074°09'0 0.0
2018-Jun-18 20:29N 40°40' W 074°09'0 0.0
2018-Jun-18 19:59N 40°40' W 074°09'0 0.0
2018-Jun-18 19:23N 40°40' W 074°09'0 0.0
2018-Jun-18 18:59N 40°40' W 074°09'0 0.0
2018-Jun-18 18:29N 40°40' W 074°09'0 0.0
2018-Jun-18 17:59N 40°40' W 074°09'0 0.0
2018-Jun-18 17:26N 40°40' W 074°09'0 0.0
2018-Jun-18 16:59N 40°40' W 074°09'0 0.0
2018-Jun-18 16:29N 40°40' W 074°09'0 0.0
2018-Jun-18 15:59N 40°40' W 074°09'0 0.0
2018-Jun-18 15:29N 40°40' W 074°09'0 0.0
2018-Jun-18 14:59N 40°40' W 074°09'0 0.0
2018-Jun-18 14:26N 40°40' W 074°09'0 0.0
2018-Jun-18 13:59N 40°40' W 074°09'0 0.0
2018-Jun-18 13:29N 40°40' W 074°09'0 0.0
2018-Jun-18 12:59N 40°40' W 074°09'0 0.0
2018-Jun-18 12:29N 40°40' W 074°09'0 0.0
2018-Jun-18 11:59N 40°40' W 074°09'0 0.0
2018-Jun-18 11:20N 40°40' W 074°09'0 0.0
2018-Jun-18 10:59N 40°40' W 074°09'0 0.0
2018-Jun-18 10:29N 40°40' W 074°09'0 0.0
2018-Jun-18 09:56N 40°40' W 074°09'0 0.0
2018-Jun-18 09:29N 40°40' W 074°09'0 0.0
2018-Jun-18 08:59N 40°40' W 074°09'0 0.0
2018-Jun-18 08:29N 40°40' W 074°09'0 0.0
2018-Jun-18 07:57N 40°40' W 074°09'0 0.1
2018-Jun-18 07:30N 40°40' W 074°09'1 2.6
2018-Jun-18 07:00N 40°39' W 074°08'3 6.6
2018-Jun-18 06:30N 40°39' W 074°04'612.3
2018-Jun-18 06:01N 40°33' W 074°02'815.4
2018-Jun-18 05:30N 40°29' W 073°53'5 9.9
2018-Jun-18 05:01N 40°26' W 073°47'2 3.8
2018-Jun-18 04:30N 40°26' W 073°45'4 7.3
2018-Jun-18 04:00N 40°27' W 073°40'6 9.0
2018-Jun-18 03:21N 40°28' W 073°33'3 9.2
2018-Jun-18 03:00N 40°28' W 073°28'5 9.3
2018-Jun-18 02:30N 40°29' W 073°22'815.4
2018-Jun-18 02:00N 40°30' W 073°12'917.4
2018-Jun-18 01:30N 40°30' W 073°01'917.8
2018-Jun-18 01:00N 40°31' W 072°49'1018.2
2018-Jun-18 00:29N 40°31' W 072°37'918.3
2018-Jun-18 00:00N 40°31' W 072°25'918.4
2018-Jun-17 23:30N 40°31' W 072°13'918.5
2018-Jun-17 23:01N 40°31' W 072°01'918.8
2018-Jun-17 22:30N 40°31' W 071°49'9621.3
2018-Jun-17 18:00N 40°36' W 069°42'45719.0 290 / 71019.027.0 17.313.213.6
2018-Jun-16 18:00N 40°18' W 059°42'53017.7 290 / 321012.710.8 21.0 7.519.0
2018-Jun-15 12:00N 41°12' W 048°06'11719.6 210 / 301012.727.0 18.714.412.5
2018-Jun-15 06:00N 41°12' W 045°30'   180 / 161016.710.8 19.015.619.0

Dump ship's entire track history